sensor_id;sensor_type;location;lat;lon;timestamp;P1;durP1;ratioP1;P2;durP2;ratioP2
60859;SDS011;46694;54.382;9.708;2023-06-14T00:00:45;6.40;;;3.03;;
60859;SDS011;46694;54.382;9.708;2023-06-14T00:03:26;6.30;;;3.40;;
60859;SDS011;46694;54.382;9.708;2023-06-14T00:06:05;8.20;;;3.17;;
60859;SDS011;46694;54.382;9.708;2023-06-14T00:08:45;12.13;;;3.80;;
60859;SDS011;46694;54.382;9.708;2023-06-14T00:11:25;7.93;;;3.47;;
60859;SDS011;46694;54.382;9.708;2023-06-14T00:14:05;13.53;;;3.93;;
60859;SDS011;46694;54.382;9.708;2023-06-14T00:20:30;7.43;;;3.80;;
60859;SDS011;46694;54.382;9.708;2023-06-14T00:23:11;7.50;;;4.33;;
60859;SDS011;46694;54.382;9.708;2023-06-14T00:25:50;7.63;;;3.80;;
60859;SDS011;46694;54.382;9.708;2023-06-14T00:28:30;5.03;;;4.20;;
60859;SDS011;46694;54.382;9.708;2023-06-14T00:31:09;5.07;;;4.40;;
60859;SDS011;46694;54.382;9.708;2023-06-14T00:33:49;8.13;;;3.90;;
60859;SDS011;46694;54.382;9.708;2023-06-14T00:36:29;15.40;;;4.80;;
60859;SDS011;46694;54.382;9.708;2023-06-14T00:39:08;8.43;;;3.90;;
60859;SDS011;46694;54.382;9.708;2023-06-14T00:41:48;4.70;;;3.90;;
60859;SDS011;46694;54.382;9.708;2023-06-14T00:44:28;8.33;;;4.23;;
60859;SDS011;46694;54.382;9.708;2023-06-14T00:47:07;10.43;;;4.10;;
60859;SDS011;46694;54.382;9.708;2023-06-14T00:49:47;10.63;;;3.90;;
60859;SDS011;46694;54.382;9.708;2023-06-14T00:52:29;11.87;;;4.13;;
60859;SDS011;46694;54.382;9.708;2023-06-14T00:55:11;14.43;;;4.60;;
60859;SDS011;46694;54.382;9.708;2023-06-14T00:57:51;10.63;;;4.17;;
60859;SDS011;46694;54.382;9.708;2023-06-14T01:00:30;10.57;;;4.37;;
60859;SDS011;46694;54.382;9.708;2023-06-14T01:03:10;9.63;;;3.70;;
60859;SDS011;46694;54.382;9.708;2023-06-14T01:05:53;9.37;;;4.50;;
60859;SDS011;46694;54.382;9.708;2023-06-14T01:09:10;12.73;;;4.80;;
60859;SDS011;46694;54.382;9.708;2023-06-14T01:12:08;9.13;;;4.00;;
60859;SDS011;46694;54.382;9.708;2023-06-14T01:14:55;9.60;;;4.90;;
60859;SDS011;46694;54.382;9.708;2023-06-14T01:17:38;6.50;;;4.80;;
60859;SDS011;46694;54.382;9.708;2023-06-14T01:20:22;9.73;;;4.13;;
60859;SDS011;46694;54.382;9.708;2023-06-14T01:23:08;14.17;;;4.90;;
60859;SDS011;46694;54.382;9.708;2023-06-14T01:25:48;7.60;;;4.60;;
60859;SDS011;46694;54.382;9.708;2023-06-14T01:28:31;9.33;;;4.30;;
60859;SDS011;46694;54.382;9.708;2023-06-14T01:31:12;6.87;;;3.83;;
60859;SDS011;46694;54.382;9.708;2023-06-14T01:33:55;9.07;;;4.77;;
60859;SDS011;46694;54.382;9.708;2023-06-14T01:36:35;13.27;;;5.17;;
60859;SDS011;46694;54.382;9.708;2023-06-14T01:39:18;7.83;;;4.17;;
60859;SDS011;46694;54.382;9.708;2023-06-14T01:41:58;11.10;;;4.80;;
60859;SDS011;46694;54.382;9.708;2023-06-14T01:44:39;9.37;;;4.90;;
60859;SDS011;46694;54.382;9.708;2023-06-14T01:47:21;6.63;;;4.57;;
60859;SDS011;46694;54.382;9.708;2023-06-14T01:50:01;15.13;;;5.10;;
60859;SDS011;46694;54.382;9.708;2023-06-14T01:52:44;6.70;;;4.27;;
60859;SDS011;46694;54.382;9.708;2023-06-14T01:55:24;6.70;;;4.00;;
60859;SDS011;46694;54.382;9.708;2023-06-14T01:58:04;15.00;;;4.33;;
60859;SDS011;46694;54.382;9.708;2023-06-14T02:00:43;6.60;;;4.33;;
60859;SDS011;46694;54.382;9.708;2023-06-14T02:03:24;9.07;;;4.63;;
60859;SDS011;46694;54.382;9.708;2023-06-14T02:06:04;7.53;;;4.90;;
60859;SDS011;46694;54.382;9.708;2023-06-14T02:08:43;10.50;;;4.50;;
60859;SDS011;46694;54.382;9.708;2023-06-14T02:11:23;9.37;;;4.80;;
60859;SDS011;46694;54.382;9.708;2023-06-14T02:14:04;11.30;;;5.03;;
60859;SDS011;46694;54.382;9.708;2023-06-14T02:16:45;8.83;;;4.77;;
60859;SDS011;46694;54.382;9.708;2023-06-14T02:19:27;12.53;;;5.10;;
60859;SDS011;46694;54.382;9.708;2023-06-14T02:22:07;9.40;;;4.70;;
60859;SDS011;46694;54.382;9.708;2023-06-14T02:24:46;10.57;;;5.17;;
60859;SDS011;46694;54.382;9.708;2023-06-14T02:27:26;9.30;;;4.27;;
60859;SDS011;46694;54.382;9.708;2023-06-14T02:30:05;11.60;;;4.40;;
60859;SDS011;46694;54.382;9.708;2023-06-14T02:32:45;12.13;;;5.00;;
60859;SDS011;46694;54.382;9.708;2023-06-14T02:35:27;8.53;;;5.40;;
60859;SDS011;46694;54.382;9.708;2023-06-14T02:38:06;10.20;;;4.47;;
60859;SDS011;46694;54.382;9.708;2023-06-14T02:40:45;11.27;;;5.40;;
60859;SDS011;46694;54.382;9.708;2023-06-14T02:43:25;7.67;;;4.93;;
60859;SDS011;46694;54.382;9.708;2023-06-14T02:46:06;7.80;;;4.00;;
60859;SDS011;46694;54.382;9.708;2023-06-14T02:48:45;6.70;;;4.27;;
60859;SDS011;46694;54.382;9.708;2023-06-14T02:51:25;8.53;;;4.60;;
60859;SDS011;46694;54.382;9.708;2023-06-14T02:54:04;8.70;;;3.63;;
60859;SDS011;46694;54.382;9.708;2023-06-14T02:56:44;16.07;;;4.73;;
60859;SDS011;46694;54.382;9.708;2023-06-14T02:59:23;9.33;;;4.80;;
60859;SDS011;46694;54.382;9.708;2023-06-14T03:02:04;5.50;;;4.03;;
60859;SDS011;46694;54.382;9.708;2023-06-14T03:04:44;7.30;;;3.97;;
60859;SDS011;46694;54.382;9.708;2023-06-14T03:07:25;9.10;;;3.87;;
60859;SDS011;46694;54.382;9.708;2023-06-14T03:10:07;5.70;;;4.53;;
60859;SDS011;46694;54.382;9.708;2023-06-14T03:12:48;9.00;;;3.40;;
60859;SDS011;46694;54.382;9.708;2023-06-14T03:15:28;10.03;;;4.30;;
60859;SDS011;46694;54.382;9.708;2023-06-14T03:18:08;9.80;;;3.90;;
60859;SDS011;46694;54.382;9.708;2023-06-14T03:20:50;6.30;;;3.70;;
60859;SDS011;46694;54.382;9.708;2023-06-14T03:23:31;8.50;;;3.50;;
60859;SDS011;46694;54.382;9.708;2023-06-14T03:26:11;7.70;;;4.50;;
60859;SDS011;46694;54.382;9.708;2023-06-14T03:28:53;10.33;;;4.23;;
60859;SDS011;46694;54.382;9.708;2023-06-14T03:31:33;13.43;;;4.20;;
60859;SDS011;46694;54.382;9.708;2023-06-14T03:34:14;10.13;;;4.67;;
60859;SDS011;46694;54.382;9.708;2023-06-14T03:36:54;20.83;;;4.27;;
60859;SDS011;46694;54.382;9.708;2023-06-14T03:39:34;8.40;;;3.60;;
60859;SDS011;46694;54.382;9.708;2023-06-14T03:42:14;11.20;;;3.73;;
60859;SDS011;46694;54.382;9.708;2023-06-14T03:44:54;10.27;;;4.10;;
60859;SDS011;46694;54.382;9.708;2023-06-14T03:47:34;5.90;;;4.10;;
60859;SDS011;46694;54.382;9.708;2023-06-14T03:50:14;10.30;;;4.07;;
60859;SDS011;46694;54.382;9.708;2023-06-14T03:52:54;11.70;;;3.93;;
60859;SDS011;46694;54.382;9.708;2023-06-14T03:55:33;9.70;;;4.33;;
60859;SDS011;46694;54.382;9.708;2023-06-14T03:58:13;12.17;;;4.17;;
60859;SDS011;46694;54.382;9.708;2023-06-14T04:00:53;7.00;;;4.07;;
60859;SDS011;46694;54.382;9.708;2023-06-14T04:03:32;9.93;;;4.10;;
60859;SDS011;46694;54.382;9.708;2023-06-14T04:06:12;7.03;;;3.73;;
60859;SDS011;46694;54.382;9.708;2023-06-14T04:08:58;8.07;;;3.70;;
60859;SDS011;46694;54.382;9.708;2023-06-14T04:11:42;7.97;;;3.70;;
60859;SDS011;46694;54.382;9.708;2023-06-14T04:14:21;6.20;;;3.03;;
60859;SDS011;46694;54.382;9.708;2023-06-14T04:17:01;13.23;;;4.37;;
60859;SDS011;46694;54.382;9.708;2023-06-14T04:19:40;4.30;;;3.90;;
60859;SDS011;46694;54.382;9.708;2023-06-14T04:22:20;6.30;;;3.70;;
60859;SDS011;46694;54.382;9.708;2023-06-14T04:25:00;8.10;;;3.50;;
60859;SDS011;46694;54.382;9.708;2023-06-14T04:27:40;7.93;;;4.03;;
60859;SDS011;46694;54.382;9.708;2023-06-14T04:30:20;5.87;;;3.87;;
60859;SDS011;46694;54.382;9.708;2023-06-14T04:33:04;6.50;;;3.47;;
60859;SDS011;46694;54.382;9.708;2023-06-14T04:35:44;5.10;;;2.80;;
60859;SDS011;46694;54.382;9.708;2023-06-14T04:38:25;10.13;;;3.90;;
60859;SDS011;46694;54.382;9.708;2023-06-14T04:41:06;5.83;;;3.20;;
60859;SDS011;46694;54.382;9.708;2023-06-14T04:43:50;11.63;;;4.27;;
60859;SDS011;46694;54.382;9.708;2023-06-14T04:46:32;5.90;;;3.00;;
60859;SDS011;46694;54.382;9.708;2023-06-14T04:49:12;9.20;;;3.40;;
60859;SDS011;46694;54.382;9.708;2023-06-14T04:51:56;12.87;;;3.60;;
60859;SDS011;46694;54.382;9.708;2023-06-14T04:54:40;8.07;;;3.30;;
60859;SDS011;46694;54.382;9.708;2023-06-14T04:57:22;8.37;;;3.13;;
60859;SDS011;46694;54.382;9.708;2023-06-14T05:00:04;4.83;;;3.37;;
60859;SDS011;46694;54.382;9.708;2023-06-14T05:02:44;7.00;;;3.47;;
60859;SDS011;46694;54.382;9.708;2023-06-14T05:05:25;5.23;;;3.43;;
60859;SDS011;46694;54.382;9.708;2023-06-14T05:08:05;7.00;;;3.07;;
60859;SDS011;46694;54.382;9.708;2023-06-14T05:10:44;4.67;;;2.80;;
60859;SDS011;46694;54.382;9.708;2023-06-14T05:13:24;4.80;;;2.53;;
60859;SDS011;46694;54.382;9.708;2023-06-14T05:16:06;7.83;;;2.40;;
60859;SDS011;46694;54.382;9.708;2023-06-14T05:18:46;12.07;;;3.23;;
60859;SDS011;46694;54.382;9.708;2023-06-14T05:21:25;8.80;;;2.93;;
60859;SDS011;46694;54.382;9.708;2023-06-14T05:24:05;17.23;;;2.70;;
60859;SDS011;46694;54.382;9.708;2023-06-14T05:26:45;5.40;;;2.87;;
60859;SDS011;46694;54.382;9.708;2023-06-14T05:29:25;7.80;;;2.97;;
60859;SDS011;46694;54.382;9.708;2023-06-14T05:32:06;5.27;;;3.00;;
60859;SDS011;46694;54.382;9.708;2023-06-14T05:34:46;5.10;;;2.50;;
60859;SDS011;46694;54.382;9.708;2023-06-14T05:37:25;5.30;;;2.43;;
60859;SDS011;46694;54.382;9.708;2023-06-14T05:40:05;6.67;;;2.73;;
60859;SDS011;46694;54.382;9.708;2023-06-14T05:42:45;5.60;;;2.90;;
60859;SDS011;46694;54.382;9.708;2023-06-14T05:45:25;3.57;;;2.57;;
60859;SDS011;46694;54.382;9.708;2023-06-14T05:48:05;6.20;;;3.60;;
60859;SDS011;46694;54.382;9.708;2023-06-14T05:50:44;6.30;;;2.87;;
60859;SDS011;46694;54.382;9.708;2023-06-14T05:53:24;3.57;;;2.67;;
60859;SDS011;46694;54.382;9.708;2023-06-14T06:00:05;7.60;;;2.83;;
60859;SDS011;46694;54.382;9.708;2023-06-14T06:02:50;10.17;;;3.23;;
60859;SDS011;46694;54.382;9.708;2023-06-14T06:05:30;6.70;;;2.93;;
60859;SDS011;46694;54.382;9.708;2023-06-14T06:08:09;4.60;;;2.37;;
60859;SDS011;46694;54.382;9.708;2023-06-14T06:10:49;4.97;;;3.50;;
60859;SDS011;46694;54.382;9.708;2023-06-14T06:13:29;6.07;;;2.13;;
60859;SDS011;46694;54.382;9.708;2023-06-14T06:16:08;6.33;;;2.93;;
60859;SDS011;46694;54.382;9.708;2023-06-14T06:18:48;5.43;;;3.07;;
60859;SDS011;46694;54.382;9.708;2023-06-14T06:21:27;6.33;;;2.90;;
60859;SDS011;46694;54.382;9.708;2023-06-14T06:24:07;5.73;;;2.50;;
60859;SDS011;46694;54.382;9.708;2023-06-14T06:26:46;5.93;;;2.83;;
60859;SDS011;46694;54.382;9.708;2023-06-14T06:29:26;3.90;;;2.53;;
60859;SDS011;46694;54.382;9.708;2023-06-14T06:32:06;6.90;;;3.30;;
60859;SDS011;46694;54.382;9.708;2023-06-14T06:34:46;7.20;;;2.67;;
60859;SDS011;46694;54.382;9.708;2023-06-14T06:37:25;2.77;;;2.50;;
60859;SDS011;46694;54.382;9.708;2023-06-14T06:40:05;4.80;;;2.17;;
60859;SDS011;46694;54.382;9.708;2023-06-14T06:42:46;8.37;;;3.20;;
60859;SDS011;46694;54.382;9.708;2023-06-14T06:45:26;4.13;;;2.40;;
60859;SDS011;46694;54.382;9.708;2023-06-14T06:48:05;6.23;;;3.00;;
60859;SDS011;46694;54.382;9.708;2023-06-14T06:50:45;7.70;;;3.10;;
60859;SDS011;46694;54.382;9.708;2023-06-14T06:53:25;5.70;;;2.20;;
60859;SDS011;46694;54.382;9.708;2023-06-14T06:56:04;4.20;;;2.60;;
60859;SDS011;46694;54.382;9.708;2023-06-14T06:58:44;5.63;;;2.43;;
60859;SDS011;46694;54.382;9.708;2023-06-14T07:01:23;7.00;;;2.60;;
60859;SDS011;46694;54.382;9.708;2023-06-14T07:04:03;6.37;;;2.90;;
60859;SDS011;46694;54.382;9.708;2023-06-14T07:06:43;5.33;;;2.27;;
60859;SDS011;46694;54.382;9.708;2023-06-14T07:09:22;4.30;;;2.47;;
60859;SDS011;46694;54.382;9.708;2023-06-14T07:12:03;5.40;;;2.40;;
60859;SDS011;46694;54.382;9.708;2023-06-14T07:14:43;7.80;;;2.60;;
60859;SDS011;46694;54.382;9.708;2023-06-14T07:17:23;5.03;;;2.27;;
60859;SDS011;46694;54.382;9.708;2023-06-14T07:20:03;4.97;;;2.20;;
60859;SDS011;46694;54.382;9.708;2023-06-14T07:22:50;2.87;;;2.50;;
60859;SDS011;46694;54.382;9.708;2023-06-14T07:25:30;2.73;;;2.20;;
60859;SDS011;46694;54.382;9.708;2023-06-14T07:28:09;11.00;;;2.67;;
60859;SDS011;46694;54.382;9.708;2023-06-14T07:30:49;7.57;;;3.03;;
60859;SDS011;46694;54.382;9.708;2023-06-14T07:33:28;6.27;;;2.33;;
60859;SDS011;46694;54.382;9.708;2023-06-14T07:36:08;7.00;;;3.00;;
60859;SDS011;46694;54.382;9.708;2023-06-14T07:38:48;6.43;;;2.57;;
60859;SDS011;46694;54.382;9.708;2023-06-14T07:41:27;2.70;;;2.33;;
60859;SDS011;46694;54.382;9.708;2023-06-14T07:44:07;8.00;;;2.80;;
60859;SDS011;46694;54.382;9.708;2023-06-14T07:46:46;5.20;;;2.70;;
60859;SDS011;46694;54.382;9.708;2023-06-14T07:49:28;13.20;;;2.80;;
60859;SDS011;46694;54.382;9.708;2023-06-14T07:52:07;10.13;;;2.90;;
60859;SDS011;46694;54.382;9.708;2023-06-14T07:54:47;7.90;;;2.70;;
60859;SDS011;46694;54.382;9.708;2023-06-14T07:57:27;4.60;;;1.93;;
60859;SDS011;46694;54.382;9.708;2023-06-14T08:00:07;7.47;;;2.80;;
60859;SDS011;46694;54.382;9.708;2023-06-14T08:02:49;13.43;;;3.30;;
60859;SDS011;46694;54.382;9.708;2023-06-14T08:05:30;17.57;;;2.90;;
60859;SDS011;46694;54.382;9.708;2023-06-14T08:08:10;6.53;;;2.20;;
60859;SDS011;46694;54.382;9.708;2023-06-14T08:10:50;5.13;;;2.70;;
60859;SDS011;46694;54.382;9.708;2023-06-14T08:13:29;3.07;;;2.13;;
60859;SDS011;46694;54.382;9.708;2023-06-14T08:16:08;5.37;;;2.50;;
60859;SDS011;46694;54.382;9.708;2023-06-14T08:18:49;3.97;;;2.53;;
60859;SDS011;46694;54.382;9.708;2023-06-14T08:21:29;5.40;;;2.60;;
60859;SDS011;46694;54.382;9.708;2023-06-14T08:24:10;2.77;;;2.47;;
60859;SDS011;46694;54.382;9.708;2023-06-14T08:26:50;11.03;;;2.60;;
60859;SDS011;46694;54.382;9.708;2023-06-14T08:29:30;12.60;;;2.50;;
60859;SDS011;46694;54.382;9.708;2023-06-14T08:35:53;6.20;;;2.87;;
60859;SDS011;46694;54.382;9.708;2023-06-14T08:38:33;8.97;;;3.20;;
60859;SDS011;46694;54.382;9.708;2023-06-14T08:41:12;6.67;;;2.37;;
60859;SDS011;46694;54.382;9.708;2023-06-14T08:44:02;6.83;;;2.60;;
60859;SDS011;46694;54.382;9.708;2023-06-14T08:46:43;3.53;;;2.30;;
60859;SDS011;46694;54.382;9.708;2023-06-14T08:49:24;10.20;;;2.80;;
60859;SDS011;46694;54.382;9.708;2023-06-14T08:52:04;11.97;;;2.53;;
60859;SDS011;46694;54.382;9.708;2023-06-14T08:54:47;6.53;;;2.50;;
60859;SDS011;46694;54.382;9.708;2023-06-14T08:57:27;5.00;;;2.40;;
60859;SDS011;46694;54.382;9.708;2023-06-14T09:00:09;6.63;;;2.60;;
60859;SDS011;46694;54.382;9.708;2023-06-14T09:02:52;5.80;;;2.70;;
60859;SDS011;46694;54.382;9.708;2023-06-14T09:05:38;5.00;;;2.20;;
60859;SDS011;46694;54.382;9.708;2023-06-14T09:08:18;4.90;;;2.30;;
60859;SDS011;46694;54.382;9.708;2023-06-14T09:11:01;6.57;;;2.70;;
60859;SDS011;46694;54.382;9.708;2023-06-14T09:13:41;12.00;;;2.80;;
60859;SDS011;46694;54.382;9.708;2023-06-14T09:16:21;3.40;;;2.10;;
60859;SDS011;46694;54.382;9.708;2023-06-14T09:19:01;3.03;;;2.10;;
60859;SDS011;46694;54.382;9.708;2023-06-14T09:21:41;6.70;;;2.20;;
60859;SDS011;46694;54.382;9.708;2023-06-14T09:24:20;11.93;;;2.70;;
60859;SDS011;46694;54.382;9.708;2023-06-14T09:27:00;3.83;;;2.80;;
60859;SDS011;46694;54.382;9.708;2023-06-14T09:29:40;9.37;;;2.87;;
60859;SDS011;46694;54.382;9.708;2023-06-14T09:32:20;7.27;;;2.30;;
60859;SDS011;46694;54.382;9.708;2023-06-14T09:35:00;3.93;;;2.20;;
60859;SDS011;46694;54.382;9.708;2023-06-14T09:37:39;6.73;;;2.90;;
60859;SDS011;46694;54.382;9.708;2023-06-14T09:40:23;3.87;;;2.10;;
60859;SDS011;46694;54.382;9.708;2023-06-14T09:43:06;11.60;;;2.30;;
60859;SDS011;46694;54.382;9.708;2023-06-14T09:45:49;2.93;;;2.20;;
60859;SDS011;46694;54.382;9.708;2023-06-14T09:48:30;4.30;;;2.10;;
60859;SDS011;46694;54.382;9.708;2023-06-14T09:51:10;5.40;;;2.90;;
60859;SDS011;46694;54.382;9.708;2023-06-14T09:53:55;3.70;;;2.30;;
60859;SDS011;46694;54.382;9.708;2023-06-14T09:56:46;4.40;;;2.20;;
60859;SDS011;46694;54.382;9.708;2023-06-14T09:59:29;4.87;;;1.97;;
60859;SDS011;46694;54.382;9.708;2023-06-14T10:02:31;2.87;;;2.57;;
60859;SDS011;46694;54.382;9.708;2023-06-14T10:05:16;4.37;;;3.13;;
60859;SDS011;46694;54.382;9.708;2023-06-14T10:07:59;2.67;;;2.33;;
60859;SDS011;46694;54.382;9.708;2023-06-14T10:10:46;7.70;;;2.53;;
60859;SDS011;46694;54.382;9.708;2023-06-14T10:13:26;4.00;;;2.43;;
60859;SDS011;46694;54.382;9.708;2023-06-14T10:16:23;4.67;;;2.07;;
60859;SDS011;46694;54.382;9.708;2023-06-14T10:19:20;3.33;;;2.23;;
60859;SDS011;46694;54.382;9.708;2023-06-14T10:22:08;5.53;;;2.37;;
60859;SDS011;46694;54.382;9.708;2023-06-14T10:24:52;9.33;;;2.77;;
60859;SDS011;46694;54.382;9.708;2023-06-14T10:27:32;4.50;;;2.70;;
60859;SDS011;46694;54.382;9.708;2023-06-14T10:30:11;5.37;;;1.80;;
60859;SDS011;46694;54.382;9.708;2023-06-14T10:33:04;5.20;;;2.63;;
60859;SDS011;46694;54.382;9.708;2023-06-14T10:35:45;6.33;;;2.63;;
60859;SDS011;46694;54.382;9.708;2023-06-14T10:38:29;6.23;;;2.30;;
60859;SDS011;46694;54.382;9.708;2023-06-14T10:41:11;5.87;;;2.60;;
60859;SDS011;46694;54.382;9.708;2023-06-14T10:43:50;2.77;;;1.80;;
60859;SDS011;46694;54.382;9.708;2023-06-14T10:46:30;6.73;;;1.97;;
60859;SDS011;46694;54.382;9.708;2023-06-14T10:49:10;4.30;;;2.37;;
60859;SDS011;46694;54.382;9.708;2023-06-14T10:51:49;4.67;;;2.60;;
60859;SDS011;46694;54.382;9.708;2023-06-14T10:54:30;6.30;;;2.50;;
60859;SDS011;46694;54.382;9.708;2023-06-14T10:57:09;2.83;;;2.43;;
60859;SDS011;46694;54.382;9.708;2023-06-14T10:59:49;6.47;;;2.20;;
60859;SDS011;46694;54.382;9.708;2023-06-14T11:05:55;3.37;;;2.13;;
60859;SDS011;46694;54.382;9.708;2023-06-14T11:12:16;9.70;;;2.70;;
60859;SDS011;46694;54.382;9.708;2023-06-14T11:14:56;3.53;;;2.53;;
60859;SDS011;46694;54.382;9.708;2023-06-14T11:17:36;7.90;;;2.30;;
60859;SDS011;46694;54.382;9.708;2023-06-14T11:20:15;4.93;;;2.30;;
60859;SDS011;46694;54.382;9.708;2023-06-14T11:22:56;3.87;;;2.40;;
60859;SDS011;46694;54.382;9.708;2023-06-14T11:25:36;3.83;;;2.63;;
60859;SDS011;46694;54.382;9.708;2023-06-14T11:28:16;2.87;;;2.13;;
60859;SDS011;46694;54.382;9.708;2023-06-14T11:31:02;4.77;;;2.30;;
60859;SDS011;46694;54.382;9.708;2023-06-14T11:33:42;4.73;;;2.77;;
60859;SDS011;46694;54.382;9.708;2023-06-14T11:36:29;3.33;;;2.70;;
60859;SDS011;46694;54.382;9.708;2023-06-14T11:39:10;4.03;;;2.40;;
60859;SDS011;46694;54.382;9.708;2023-06-14T11:41:49;2.60;;;2.17;;
60859;SDS011;46694;54.382;9.708;2023-06-14T11:44:29;5.90;;;2.90;;
60859;SDS011;46694;54.382;9.708;2023-06-14T11:47:10;4.30;;;2.20;;
60859;SDS011;46694;54.382;9.708;2023-06-14T11:49:50;7.03;;;2.30;;
60859;SDS011;46694;54.382;9.708;2023-06-14T11:52:30;7.13;;;2.40;;
60859;SDS011;46694;54.382;9.708;2023-06-14T11:55:10;4.73;;;2.33;;
60859;SDS011;46694;54.382;9.708;2023-06-14T11:57:51;4.80;;;2.27;;
60859;SDS011;46694;54.382;9.708;2023-06-14T12:00:32;2.00;;;1.80;;
60859;SDS011;46694;54.382;9.708;2023-06-14T12:03:15;7.17;;;2.50;;
60859;SDS011;46694;54.382;9.708;2023-06-14T12:06:05;2.60;;;2.40;;
60859;SDS011;46694;54.382;9.708;2023-06-14T12:08:48;5.27;;;2.33;;
60859;SDS011;46694;54.382;9.708;2023-06-14T12:11:32;6.17;;;2.17;;
60859;SDS011;46694;54.382;9.708;2023-06-14T12:14:14;6.23;;;2.23;;
60859;SDS011;46694;54.382;9.708;2023-06-14T12:17:03;7.47;;;2.50;;
60859;SDS011;46694;54.382;9.708;2023-06-14T12:19:48;15.10;;;2.30;;
60859;SDS011;46694;54.382;9.708;2023-06-14T12:22:28;3.80;;;2.50;;
60859;SDS011;46694;54.382;9.708;2023-06-14T12:25:09;5.03;;;2.37;;
60859;SDS011;46694;54.382;9.708;2023-06-14T12:27:51;5.00;;;2.10;;
60859;SDS011;46694;54.382;9.708;2023-06-14T12:30:30;5.23;;;2.37;;
60859;SDS011;46694;54.382;9.708;2023-06-14T12:33:10;2.90;;;2.03;;
60859;SDS011;46694;54.382;9.708;2023-06-14T12:35:50;3.50;;;2.23;;
60859;SDS011;46694;54.382;9.708;2023-06-14T12:38:32;3.67;;;1.83;;
60859;SDS011;46694;54.382;9.708;2023-06-14T12:41:12;5.97;;;2.67;;
60859;SDS011;46694;54.382;9.708;2023-06-14T12:43:53;3.27;;;2.07;;
60859;SDS011;46694;54.382;9.708;2023-06-14T12:46:33;2.80;;;1.97;;
60859;SDS011;46694;54.382;9.708;2023-06-14T12:49:13;4.43;;;2.40;;
60859;SDS011;46694;54.382;9.708;2023-06-14T12:51:53;4.37;;;2.57;;
60859;SDS011;46694;54.382;9.708;2023-06-14T12:54:32;4.27;;;2.50;;
60859;SDS011;46694;54.382;9.708;2023-06-14T12:57:12;4.53;;;2.40;;
60859;SDS011;46694;54.382;9.708;2023-06-14T12:59:52;2.30;;;2.20;;
60859;SDS011;46694;54.382;9.708;2023-06-14T13:02:31;6.60;;;2.90;;
60859;SDS011;46694;54.382;9.708;2023-06-14T13:05:11;5.43;;;2.10;;
60859;SDS011;46694;54.382;9.708;2023-06-14T13:07:51;6.90;;;2.13;;
60859;SDS011;46694;54.382;9.708;2023-06-14T13:10:30;3.50;;;1.77;;
60859;SDS011;46694;54.382;9.708;2023-06-14T13:13:10;5.97;;;2.80;;
60859;SDS011;46694;54.382;9.708;2023-06-14T13:15:51;3.77;;;1.90;;
60859;SDS011;46694;54.382;9.708;2023-06-14T13:18:30;2.80;;;2.03;;
60859;SDS011;46694;54.382;9.708;2023-06-14T13:21:10;2.50;;;2.00;;
60859;SDS011;46694;54.382;9.708;2023-06-14T13:23:50;2.03;;;1.93;;
60859;SDS011;46694;54.382;9.708;2023-06-14T13:26:29;6.80;;;1.60;;
60859;SDS011;46694;54.382;9.708;2023-06-14T13:29:08;4.40;;;2.03;;
60859;SDS011;46694;54.382;9.708;2023-06-14T13:31:48;8.17;;;2.30;;
60859;SDS011;46694;54.382;9.708;2023-06-14T13:34:28;9.57;;;1.80;;
60859;SDS011;46694;54.382;9.708;2023-06-14T13:37:07;3.80;;;1.80;;
60859;SDS011;46694;54.382;9.708;2023-06-14T13:39:47;7.33;;;2.00;;
60859;SDS011;46694;54.382;9.708;2023-06-14T13:42:27;2.10;;;1.87;;
60859;SDS011;46694;54.382;9.708;2023-06-14T13:45:11;6.97;;;2.03;;
60859;SDS011;46694;54.382;9.708;2023-06-14T13:47:51;8.57;;;1.60;;
60859;SDS011;46694;54.382;9.708;2023-06-14T13:50:30;5.83;;;1.60;;
60859;SDS011;46694;54.382;9.708;2023-06-14T13:53:10;3.40;;;1.27;;
60859;SDS011;46694;54.382;9.708;2023-06-14T13:55:50;3.10;;;1.77;;
60859;SDS011;46694;54.382;9.708;2023-06-14T13:58:29;3.90;;;2.87;;
60859;SDS011;46694;54.382;9.708;2023-06-14T14:01:09;2.00;;;1.80;;
60859;SDS011;46694;54.382;9.708;2023-06-14T14:03:48;4.17;;;1.73;;
60859;SDS011;46694;54.382;9.708;2023-06-14T14:06:28;5.33;;;1.60;;
60859;SDS011;46694;54.382;9.708;2023-06-14T14:09:08;4.80;;;2.27;;
60859;SDS011;46694;54.382;9.708;2023-06-14T14:11:47;1.83;;;1.43;;
60859;SDS011;46694;54.382;9.708;2023-06-14T14:14:27;6.97;;;1.70;;
60859;SDS011;46694;54.382;9.708;2023-06-14T14:17:07;5.73;;;2.60;;
60859;SDS011;46694;54.382;9.708;2023-06-14T14:19:47;12.87;;;1.70;;
60859;SDS011;46694;54.382;9.708;2023-06-14T14:22:26;9.97;;;1.93;;
60859;SDS011;46694;54.382;9.708;2023-06-14T14:25:05;10.90;;;2.23;;
60859;SDS011;46694;54.382;9.708;2023-06-14T14:27:45;8.10;;;2.20;;
60859;SDS011;46694;54.382;9.708;2023-06-14T14:30:25;3.93;;;1.70;;
60859;SDS011;46694;54.382;9.708;2023-06-14T14:33:05;9.93;;;2.47;;
60859;SDS011;46694;54.382;9.708;2023-06-14T14:35:45;3.73;;;2.10;;
60859;SDS011;46694;54.382;9.708;2023-06-14T14:38:25;2.70;;;1.67;;
60859;SDS011;46694;54.382;9.708;2023-06-14T14:41:05;2.97;;;2.13;;
60859;SDS011;46694;54.382;9.708;2023-06-14T14:43:44;1.73;;;1.57;;
60859;SDS011;46694;54.382;9.708;2023-06-14T14:46:24;13.87;;;1.80;;
60859;SDS011;46694;54.382;9.708;2023-06-14T14:49:03;3.53;;;2.10;;
60859;SDS011;46694;54.382;9.708;2023-06-14T14:51:43;2.90;;;2.07;;
60859;SDS011;46694;54.382;9.708;2023-06-14T14:54:22;2.17;;;1.90;;
60859;SDS011;46694;54.382;9.708;2023-06-14T14:57:04;2.40;;;1.90;;
60859;SDS011;46694;54.382;9.708;2023-06-14T14:59:45;6.57;;;2.17;;
60859;SDS011;46694;54.382;9.708;2023-06-14T15:02:25;2.33;;;2.00;;
60859;SDS011;46694;54.382;9.708;2023-06-14T15:05:04;6.57;;;1.80;;
60859;SDS011;46694;54.382;9.708;2023-06-14T15:07:44;6.73;;;2.10;;
60859;SDS011;46694;54.382;9.708;2023-06-14T15:10:24;4.40;;;2.30;;
60859;SDS011;46694;54.382;9.708;2023-06-14T15:13:03;5.43;;;2.13;;
60859;SDS011;46694;54.382;9.708;2023-06-14T15:15:43;8.00;;;2.80;;
60859;SDS011;46694;54.382;9.708;2023-06-14T15:18:23;5.70;;;1.90;;
60859;SDS011;46694;54.382;9.708;2023-06-14T15:21:02;6.73;;;2.50;;
60859;SDS011;46694;54.382;9.708;2023-06-14T15:23:42;9.50;;;1.83;;
60859;SDS011;46694;54.382;9.708;2023-06-14T15:26:21;14.20;;;2.57;;
60859;SDS011;46694;54.382;9.708;2023-06-14T15:29:03;3.93;;;2.20;;
60859;SDS011;46694;54.382;9.708;2023-06-14T15:31:42;9.40;;;1.90;;
60859;SDS011;46694;54.382;9.708;2023-06-14T15:34:22;6.80;;;2.23;;
60859;SDS011;46694;54.382;9.708;2023-06-14T15:37:01;3.17;;;2.00;;
60859;SDS011;46694;54.382;9.708;2023-06-14T15:39:41;7.27;;;2.33;;
60859;SDS011;46694;54.382;9.708;2023-06-14T15:42:20;8.90;;;2.57;;
60859;SDS011;46694;54.382;9.708;2023-06-14T15:45:00;13.53;;;2.00;;
60859;SDS011;46694;54.382;9.708;2023-06-14T15:47:39;4.83;;;2.13;;
60859;SDS011;46694;54.382;9.708;2023-06-14T15:50:19;2.50;;;1.60;;
60859;SDS011;46694;54.382;9.708;2023-06-14T15:52:59;2.13;;;1.93;;
60859;SDS011;46694;54.382;9.708;2023-06-14T15:55:39;2.73;;;2.23;;
60859;SDS011;46694;54.382;9.708;2023-06-14T15:58:18;7.20;;;2.50;;
60859;SDS011;46694;54.382;9.708;2023-06-14T16:00:58;4.13;;;2.00;;
60859;SDS011;46694;54.382;9.708;2023-06-14T16:03:38;9.60;;;1.93;;
60859;SDS011;46694;54.382;9.708;2023-06-14T16:06:17;8.80;;;2.30;;
60859;SDS011;46694;54.382;9.708;2023-06-14T16:08:57;6.07;;;2.90;;
60859;SDS011;46694;54.382;9.708;2023-06-14T16:11:37;3.00;;;2.20;;
60859;SDS011;46694;54.382;9.708;2023-06-14T16:14:16;8.37;;;2.43;;
60859;SDS011;46694;54.382;9.708;2023-06-14T16:16:56;3.27;;;1.90;;
60859;SDS011;46694;54.382;9.708;2023-06-14T16:19:35;2.43;;;2.23;;
60859;SDS011;46694;54.382;9.708;2023-06-14T16:22:15;9.47;;;2.17;;
60859;SDS011;46694;54.382;9.708;2023-06-14T16:24:55;6.10;;;2.70;;